createdAt,value
2022-08-16T00:01:24.796Z,5.40
2022-08-16T00:03:55.699Z,5.80
2022-08-16T00:06:24.855Z,5.73
2022-08-16T00:08:53.032Z,5.60
2022-08-16T00:11:22.011Z,5.30
2022-08-16T00:13:53.451Z,5.80
2022-08-16T00:17:12.008Z,5.90
2022-08-16T00:19:13.663Z,5.93
2022-08-16T00:21:42.598Z,6.30
2022-08-16T00:24:12.388Z,6.40
2022-08-16T00:26:44.526Z,5.57
2022-08-16T00:29:15.755Z,6.13
2022-08-16T00:32:00.430Z,6.07
2022-08-16T00:34:44.583Z,6.00
2022-08-16T00:37:20.432Z,5.97
2022-08-16T00:39:56.980Z,5.93
2022-08-16T00:42:30.734Z,5.23
2022-08-16T00:45:06.411Z,5.47
2022-08-16T00:47:49.340Z,5.40
2022-08-16T00:50:18.406Z,5.20
2022-08-16T00:52:50.829Z,5.83
2022-08-16T00:55:21.840Z,5.90
2022-08-16T00:58:00.227Z,6.20
2022-08-16T01:00:30.810Z,5.67
2022-08-16T01:03:05.014Z,5.57
2022-08-16T01:05:34.990Z,4.93
2022-08-16T01:08:35.071Z,5.43
2022-08-16T01:10:53.182Z,5.40
2022-08-16T01:13:26.719Z,5.63
2022-08-16T01:16:01.234Z,5.53
2022-08-16T01:18:39.814Z,5.27
2022-08-16T01:21:22.141Z,5.13
2022-08-16T01:24:52.574Z,5.50
2022-08-16T01:27:06.723Z,5.47
2022-08-16T01:29:58.052Z,5.50
2022-08-16T01:32:33.226Z,5.27
2022-08-16T01:35:01.952Z,5.67
2022-08-16T01:37:35.513Z,5.77
2022-08-16T01:40:06.953Z,5.47
2022-08-16T01:42:37.262Z,5.90
2022-08-16T01:45:10.825Z,5.80
2022-08-16T01:47:49.273Z,5.63
2022-08-16T01:51:05.026Z,5.83
2022-08-16T01:53:07.318Z,6.20
2022-08-16T01:55:40.734Z,5.43
2022-08-16T01:58:10.807Z,5.97
2022-08-16T02:00:40.565Z,6.20
2022-08-16T02:03:08.639Z,5.77
2022-08-16T02:05:40.787Z,5.47
2022-08-16T02:08:33.697Z,6.37
2022-08-16T02:11:05.058Z,5.77
2022-08-16T02:13:33.501Z,5.80
2022-08-16T02:16:01.431Z,5.77
2022-08-16T02:18:29.669Z,5.57
2022-08-16T02:20:57.432Z,5.90
2022-08-16T02:23:29.593Z,5.83
2022-08-16T02:25:59.939Z,5.67
2022-08-16T02:28:30.898Z,6.03
2022-08-16T02:31:03.356Z,5.57
2022-08-16T02:33:44.159Z,5.87
2022-08-16T02:36:47.308Z,5.50
2022-08-16T02:39:07.238Z,5.63
2022-08-16T02:41:37.318Z,5.43
2022-08-16T02:44:11.303Z,5.77
2022-08-16T02:46:49.734Z,5.37
2022-08-16T02:49:18.649Z,5.37
2022-08-16T02:51:48.183Z,5.77
2022-08-16T02:54:19.874Z,5.97
2022-08-16T02:56:51.787Z,5.90
2022-08-16T02:59:24.227Z,5.80
2022-08-16T03:01:52.187Z,5.57
2022-08-16T03:04:41.393Z,5.13
2022-08-16T03:07:11.849Z,4.93
2022-08-16T03:09:40.045Z,5.30
2022-08-16T03:12:16.618Z,4.83
2022-08-16T03:14:47.334Z,5.10
2022-08-16T03:17:15.148Z,5.60
2022-08-16T03:19:48.233Z,5.27
2022-08-16T03:22:29.655Z,5.40
2022-08-16T03:25:00.833Z,4.93
2022-08-16T03:27:30.986Z,5.07
2022-08-16T03:30:02.674Z,5.50
2022-08-16T03:32:47.114Z,4.70
2022-08-16T03:35:17.567Z,5.20
2022-08-16T03:38:01.857Z,5.00
2022-08-16T03:40:33.569Z,4.23
2022-08-16T03:43:20.833Z,5.13
2022-08-16T03:45:52.826Z,5.10
2022-08-16T03:48:37.100Z,4.93
2022-08-16T03:51:10.064Z,4.43
2022-08-16T03:53:40.343Z,4.93
2022-08-16T03:56:20.780Z,4.60
2022-08-16T03:58:50.667Z,4.87
2022-08-16T04:01:20.724Z,5.07
2022-08-16T04:03:48.542Z,4.93
2022-08-16T04:06:18.562Z,5.43
2022-08-16T04:08:48.140Z,5.27
2022-08-16T04:11:17.442Z,5.00
2022-08-16T04:14:00.922Z,4.83
2022-08-16T04:16:35.233Z,4.90
2022-08-16T04:19:04.689Z,5.23
2022-08-16T04:21:34.589Z,5.03
2022-08-16T04:24:03.950Z,5.00
2022-08-16T04:26:36.294Z,4.63
2022-08-16T04:29:15.165Z,5.10
2022-08-16T04:31:56.422Z,4.73
2022-08-16T04:34:26.514Z,4.60
2022-08-16T04:36:54.557Z,4.70
2022-08-16T04:39:22.770Z,4.70
2022-08-16T04:41:56.922Z,4.73
2022-08-16T04:44:33.101Z,5.00
2022-08-16T04:47:21.206Z,4.80
2022-08-16T04:49:49.609Z,5.10
2022-08-16T04:52:33.458Z,5.00
2022-08-16T04:55:06.110Z,4.90
2022-08-16T04:57:34.763Z,4.77
2022-08-16T05:00:30.888Z,4.43
2022-08-16T05:02:58.788Z,4.80
2022-08-16T05:05:32.659Z,4.83
2022-08-16T05:08:29.131Z,4.57
2022-08-16T05:10:51.159Z,4.33
2022-08-16T05:13:19.219Z,5.30
2022-08-16T05:15:49.733Z,4.30
2022-08-16T05:18:26.895Z,4.47
2022-08-16T05:21:01.808Z,3.80
2022-08-16T05:23:38.836Z,4.03
2022-08-16T05:26:19.534Z,4.80
2022-08-16T05:28:55.620Z,4.07
2022-08-16T05:31:29.717Z,4.43
2022-08-16T05:34:03.089Z,4.40
2022-08-16T05:36:34.311Z,4.30
2022-08-16T05:39:08.707Z,4.10
2022-08-16T05:41:44.731Z,4.03
2022-08-16T05:44:23.063Z,4.33
2022-08-16T05:46:54.555Z,4.53
2022-08-16T05:49:24.807Z,4.33
2022-08-16T05:51:55.492Z,4.20
2022-08-16T05:54:26.005Z,4.03
2022-08-16T05:56:55.813Z,4.40
2022-08-16T05:59:26.812Z,4.50
2022-08-16T06:01:55.685Z,4.57
2022-08-16T06:04:34.916Z,4.73
2022-08-16T06:07:09.137Z,4.00
2022-08-16T06:09:52.584Z,4.27
2022-08-16T06:12:26.785Z,4.20
2022-08-16T06:14:59.114Z,4.10
2022-08-16T06:17:42.305Z,4.23
2022-08-16T06:20:23.784Z,4.37
2022-08-16T06:22:58.456Z,4.20
2022-08-16T06:25:36.368Z,4.33
2022-08-16T06:28:09.419Z,3.97
2022-08-16T06:30:44.050Z,4.20
2022-08-16T06:33:22.538Z,3.80
2022-08-16T06:35:55.009Z,3.87
2022-08-16T06:38:33.280Z,3.87
2022-08-16T06:41:03.824Z,3.67
2022-08-16T06:43:32.831Z,3.50
2022-08-16T06:46:03.658Z,3.90
2022-08-16T06:48:34.014Z,3.70
2022-08-16T06:51:05.974Z,3.60
2022-08-16T06:53:36.424Z,4.00
2022-08-16T06:56:14.206Z,3.77
2022-08-16T06:58:51.618Z,4.90
2022-08-16T07:01:24.815Z,4.17
2022-08-16T07:04:10.480Z,4.17
2022-08-16T07:06:43.219Z,3.73
2022-08-16T07:09:12.013Z,4.23
2022-08-16T07:11:47.678Z,4.30
2022-08-16T07:14:25.279Z,4.10
2022-08-16T07:16:58.139Z,4.03
2022-08-16T07:19:33.630Z,4.10
2022-08-16T07:22:38.987Z,3.70
2022-08-16T07:25:06.249Z,3.63
2022-08-16T07:27:37.452Z,3.67
2022-08-16T07:30:38.813Z,4.07
2022-08-16T07:32:56.002Z,3.73
2022-08-16T07:35:24.096Z,3.60
2022-08-16T07:37:53.784Z,4.23
2022-08-16T07:40:36.832Z,4.00
2022-08-16T07:43:10.885Z,3.80
2022-08-16T07:45:43.115Z,3.33
2022-08-16T07:48:12.638Z,3.70
2022-08-16T07:50:56.310Z,3.90
2022-08-16T07:53:28.986Z,3.60
2022-08-16T07:55:57.565Z,3.97
2022-08-16T07:58:34.031Z,3.90
2022-08-16T08:01:10.888Z,4.23
2022-08-16T08:03:47.667Z,3.50
2022-08-16T08:06:17.510Z,3.90
2022-08-16T08:08:51.354Z,3.87
2022-08-16T08:11:23.554Z,3.70
2022-08-16T08:13:52.732Z,4.27
2022-08-16T08:16:22.189Z,3.53
2022-08-16T08:19:00.990Z,3.73
2022-08-16T08:21:58.474Z,3.87
2022-08-16T08:24:31.652Z,4.33
2022-08-16T08:27:02.466Z,3.43
2022-08-16T08:29:37.202Z,3.73
2022-08-16T08:32:57.757Z,3.40
2022-08-16T08:34:55.858Z,3.40
2022-08-16T08:37:55.152Z,3.23
2022-08-16T08:40:24.776Z,3.27
2022-08-16T08:43:00.937Z,3.20
2022-08-16T08:45:46.934Z,3.60
2022-08-16T08:48:34.825Z,3.20
2022-08-16T08:51:05.407Z,2.97
2022-08-16T08:53:37.350Z,3.40
2022-08-16T08:56:23.713Z,3.30
2022-08-16T08:58:59.075Z,3.20
2022-08-16T09:01:36.498Z,3.70
2022-08-16T09:04:14.670Z,3.40
2022-08-16T09:06:46.101Z,3.83
2022-08-16T09:09:16.797Z,2.87
2022-08-16T09:11:52.444Z,2.90
2022-08-16T09:14:28.107Z,3.10
2022-08-16T09:17:03.820Z,3.20
2022-08-16T09:19:40.780Z,3.10
2022-08-16T09:22:20.972Z,2.60
2022-08-16T09:24:53.218Z,2.78
2022-08-16T09:27:23.447Z,3.33
2022-08-16T09:30:00.573Z,2.70
2022-08-16T09:32:31.259Z,2.90
2022-08-16T09:35:01.745Z,3.00
2022-08-16T09:37:36.527Z,2.85
2022-08-16T09:40:31.746Z,2.70
2022-08-16T09:42:59.327Z,3.20
2022-08-16T09:45:29.221Z,2.77
2022-08-16T09:47:59.563Z,2.50
2022-08-16T09:50:37.307Z,3.03
2022-08-16T09:53:15.541Z,2.55
2022-08-16T09:55:49.326Z,2.80
2022-08-16T09:58:37.699Z,3.05
2022-08-16T10:01:08.417Z,3.50
2022-08-16T10:03:38.841Z,3.17
2022-08-16T10:06:33.212Z,2.95
2022-08-16T10:09:05.962Z,3.20
2022-08-16T10:11:52.837Z,3.08
2022-08-16T10:14:32.726Z,2.65
2022-08-16T10:17:02.998Z,3.40
2022-08-16T10:19:32.446Z,2.65
2022-08-16T10:22:04.901Z,3.13
2022-08-16T10:24:36.545Z,2.58
2022-08-16T10:27:22.261Z,3.00
2022-08-16T10:30:01.241Z,2.80
2022-08-16T10:32:35.537Z,2.33
2022-08-16T10:35:09.323Z,2.90
2022-08-16T10:37:37.144Z,2.95
2022-08-16T10:40:28.207Z,2.42
2022-08-16T10:42:58.004Z,2.25
2022-08-16T10:45:28.986Z,2.50
2022-08-16T10:48:06.535Z,2.80
2022-08-16T10:50:55.235Z,2.78
2022-08-16T10:53:23.090Z,2.60
2022-08-16T10:55:57.451Z,3.03
2022-08-16T10:58:34.691Z,2.63
2022-08-16T11:03:57.233Z,2.42
2022-08-16T11:06:26.986Z,2.88
2022-08-16T11:14:35.569Z,2.40
2022-08-16T11:17:11.071Z,2.30
2022-08-16T11:22:47.552Z,2.85
2022-08-16T11:28:09.952Z,2.60
2022-08-16T11:30:39.647Z,3.05
2022-08-16T11:33:11.803Z,2.53
2022-08-16T11:35:43.777Z,2.30
2022-08-16T11:38:42.261Z,2.55
2022-08-16T11:41:03.905Z,2.55
2022-08-16T11:43:35.861Z,2.75
2022-08-16T11:46:45.448Z,2.33
2022-08-16T11:48:57.086Z,2.80
2022-08-16T11:51:25.118Z,3.33
2022-08-16T11:53:53.211Z,2.55
2022-08-16T11:56:39.649Z,2.83
2022-08-16T11:59:12.853Z,2.42
2022-08-16T12:01:55.422Z,2.42
2022-08-16T12:04:30.937Z,2.28
2022-08-16T12:06:59.731Z,2.50
2022-08-16T12:09:30.229Z,2.88
2022-08-16T12:11:58.530Z,2.63
2022-08-16T12:14:35.301Z,2.22
2022-08-16T12:17:08.168Z,2.72
2022-08-16T12:19:38.954Z,2.67
2022-08-16T12:22:19.047Z,2.30
2022-08-16T12:24:52.226Z,2.90
2022-08-16T12:27:24.107Z,2.65
2022-08-16T12:29:53.804Z,2.60
2022-08-16T12:32:36.081Z,2.53
2022-08-16T12:35:12.199Z,2.60
2022-08-16T12:37:41.568Z,3.00
2022-08-16T12:40:19.426Z,2.40
2022-08-16T12:42:54.789Z,2.60
2022-08-16T12:45:29.731Z,2.50
2022-08-16T12:48:33.510Z,2.50
2022-08-16T12:51:13.654Z,2.60
2022-08-16T12:53:48.848Z,2.92
2022-08-16T12:56:18.902Z,2.35
2022-08-16T12:58:51.765Z,2.50
2022-08-16T13:01:22.489Z,2.63
2022-08-16T13:03:59.151Z,2.58
2022-08-16T13:06:39.473Z,2.60
2022-08-16T13:09:20.248Z,2.47
2022-08-16T13:12:00.049Z,2.30
2022-08-16T13:14:33.843Z,2.50
2022-08-16T13:17:06.601Z,2.60
2022-08-16T13:20:05.605Z,2.58
2022-08-16T13:22:25.822Z,2.22
2022-08-16T13:24:54.047Z,3.20
2022-08-16T13:27:59.370Z,2.60
2022-08-16T13:30:36.261Z,2.38
2022-08-16T13:33:00.564Z,2.58
2022-08-16T13:35:34.636Z,2.50
2022-08-16T13:38:04.931Z,2.35
2022-08-16T13:40:34.742Z,2.97
2022-08-16T13:43:03.021Z,2.60
2022-08-16T13:45:33.199Z,2.72
2022-08-16T13:48:06.390Z,2.50
2022-08-16T13:50:51.357Z,2.70
2022-08-16T13:53:24.586Z,2.70
2022-08-16T13:55:59.106Z,2.40
2022-08-16T13:58:36.677Z,2.30
2022-08-16T14:01:09.754Z,2.13
2022-08-16T14:03:38.705Z,2.22
2022-08-16T14:06:10.922Z,2.22
2022-08-16T14:08:41.874Z,2.53
2022-08-16T14:11:12.214Z,2.40
2022-08-16T14:13:41.024Z,2.40
2022-08-16T14:16:24.176Z,2.63
2022-08-16T14:18:53.029Z,2.55
2022-08-16T14:21:22.050Z,2.80
2022-08-16T14:23:52.987Z,2.80
2022-08-16T14:26:21.536Z,2.80
2022-08-16T14:28:50.944Z,2.75
2022-08-16T14:31:19.324Z,2.70
2022-08-16T14:33:47.518Z,3.05
2022-08-16T14:36:18.627Z,2.30
2022-08-16T14:38:59.294Z,2.70
2022-08-16T14:41:27.427Z,2.40
2022-08-16T14:43:57.019Z,2.60
2022-08-16T14:46:25.141Z,2.60
2022-08-16T14:48:53.812Z,2.65
2022-08-16T14:51:22.761Z,2.28
2022-08-16T14:53:56.353Z,2.33
2022-08-16T14:56:42.783Z,2.35
2022-08-16T14:59:11.646Z,2.60
2022-08-16T15:01:58.740Z,2.30
2022-08-16T15:04:33.292Z,2.60
2022-08-16T15:07:10.884Z,2.63
2022-08-16T15:09:44.879Z,2.40
2022-08-16T15:12:33.463Z,2.58
2022-08-16T15:15:12.065Z,2.22
2022-08-16T15:17:41.521Z,2.53
2022-08-16T15:20:10.964Z,2.63
2022-08-16T15:22:42.920Z,2.47
2022-08-16T15:25:13.859Z,2.33
2022-08-16T15:27:54.893Z,2.38
2022-08-16T15:30:58.485Z,2.70
2022-08-16T15:33:16.214Z,2.40
2022-08-16T15:35:44.814Z,2.63
2022-08-16T15:38:54.632Z,2.50
2022-08-16T15:41:03.470Z,2.35
2022-08-16T15:43:39.240Z,2.42
2022-08-16T15:46:34.924Z,2.30
2022-08-16T15:49:13.793Z,2.88
2022-08-16T15:51:44.637Z,2.70
2022-08-16T15:54:21.485Z,2.83
2022-08-16T15:57:01.544Z,2.58
2022-08-16T15:59:48.248Z,2.80
2022-08-16T16:02:29.264Z,2.33
2022-08-16T16:05:01.051Z,2.58
2022-08-16T16:07:31.422Z,2.60
2022-08-16T16:10:00.017Z,2.70
2022-08-16T16:15:22.786Z,2.60
2022-08-16T16:17:52.444Z,2.70
2022-08-16T16:20:22.296Z,2.55
2022-08-16T16:22:53.309Z,2.40
2022-08-16T16:25:21.319Z,2.70
2022-08-16T16:27:55.289Z,2.50
2022-08-16T16:30:33.283Z,3.10
2022-08-16T16:33:05.513Z,2.40
2022-08-16T16:35:36.355Z,3.15
2022-08-16T16:38:08.153Z,2.90
2022-08-16T16:40:46.339Z,3.78
2022-08-16T16:43:16.047Z,2.80
2022-08-16T16:45:45.593Z,3.10
2022-08-16T16:48:14.550Z,3.00
2022-08-16T16:50:45.808Z,2.95
2022-08-16T16:53:17.050Z,2.67
2022-08-16T16:55:47.799Z,2.70
2022-08-16T16:58:37.726Z,2.85
2022-08-16T17:01:07.979Z,2.50
2022-08-16T17:03:36.476Z,2.70
2022-08-16T17:06:11.751Z,2.90
2022-08-16T17:08:41.421Z,2.75
2022-08-16T17:11:10.045Z,2.65
2022-08-16T17:13:38.695Z,3.35
2022-08-16T17:16:09.491Z,2.72
2022-08-16T17:19:16.851Z,2.80
2022-08-16T17:21:36.939Z,2.90
2022-08-16T17:24:17.849Z,2.90
2022-08-16T17:26:49.013Z,2.60
2022-08-16T17:29:17.251Z,2.92
2022-08-16T17:31:50.592Z,2.80
2022-08-16T17:34:28.795Z,2.90
2022-08-16T17:37:04.953Z,2.67
2022-08-16T17:39:33.317Z,2.85
2022-08-16T17:42:02.632Z,2.90
2022-08-16T17:44:30.597Z,2.72
2022-08-16T17:47:00.259Z,2.97
2022-08-16T17:49:28.365Z,2.92
2022-08-16T17:51:56.106Z,2.97
2022-08-16T17:54:30.725Z,3.15
2022-08-16T17:57:00.593Z,2.88
2022-08-16T17:59:30.592Z,2.83
2022-08-16T18:01:59.742Z,3.03
2022-08-16T18:04:45.203Z,2.60
2022-08-16T18:07:18.303Z,2.55
2022-08-16T18:09:46.197Z,2.60
2022-08-16T18:12:41.638Z,2.40
2022-08-16T18:15:07.681Z,2.30
2022-08-16T18:17:37.965Z,2.70
2022-08-16T18:20:07.069Z,3.03
2022-08-16T18:22:34.570Z,2.50
2022-08-16T18:25:02.791Z,2.58
2022-08-16T18:27:32.733Z,2.60
2022-08-16T18:30:00.791Z,2.85
2022-08-16T18:32:29.195Z,2.65
2022-08-16T18:34:58.411Z,3.10
2022-08-16T18:37:26.451Z,2.90
2022-08-16T18:39:54.304Z,2.75
2022-08-16T18:42:24.578Z,2.97
2022-08-16T18:44:52.954Z,3.08
2022-08-16T18:47:20.822Z,3.47
2022-08-16T18:49:49.579Z,2.95
2022-08-16T18:52:25.309Z,3.10
2022-08-16T18:55:01.913Z,3.03
2022-08-16T18:57:42.065Z,3.08
2022-08-16T19:00:12.435Z,2.78
2022-08-16T19:02:57.981Z,2.95
2022-08-16T19:05:29.319Z,3.63
2022-08-16T19:07:59.105Z,3.38
2022-08-16T19:10:28.166Z,2.80
2022-08-16T19:12:56.108Z,2.80
2022-08-16T19:15:27.439Z,2.78
2022-08-16T19:17:56.934Z,2.85
2022-08-16T19:20:28.868Z,2.95
2022-08-16T19:23:05.540Z,2.88
2022-08-16T19:25:47.297Z,3.00
2022-08-16T19:28:49.879Z,3.00
2022-08-16T19:31:12.250Z,2.63
2022-08-16T19:33:53.420Z,3.08
2022-08-16T19:36:31.266Z,2.83
2022-08-16T19:39:08.822Z,3.42
2022-08-16T19:41:38.656Z,3.70
2022-08-16T19:44:07.445Z,3.45
2022-08-16T19:46:35.871Z,2.80
2022-08-16T19:49:07.105Z,3.08
2022-08-16T19:51:38.853Z,3.10
2022-08-16T19:54:08.288Z,3.03
2022-08-16T19:56:37.397Z,3.28
2022-08-16T19:59:22.232Z,3.00
2022-08-16T20:01:54.448Z,3.58
2022-08-16T20:04:23.454Z,3.40
2022-08-16T20:06:52.489Z,3.20
2022-08-16T20:09:22.278Z,2.80
2022-08-16T20:11:52.236Z,3.30
2022-08-16T20:14:25.623Z,3.55
2022-08-16T20:16:58.971Z,3.28
2022-08-16T20:19:28.058Z,3.67
2022-08-16T20:21:57.455Z,3.42
2022-08-16T20:24:34.618Z,3.20
2022-08-16T20:27:04.090Z,3.50
2022-08-16T20:29:32.798Z,3.38
2022-08-16T20:32:00.704Z,3.22
2022-08-16T20:34:28.782Z,3.28
2022-08-16T20:36:56.857Z,3.42
2022-08-16T20:39:26.142Z,3.15
2022-08-16T20:41:54.051Z,3.78
2022-08-16T20:44:22.928Z,3.33
2022-08-16T20:46:53.204Z,3.47
2022-08-16T20:49:22.319Z,3.35
2022-08-16T20:51:54.614Z,3.13
2022-08-16T20:54:27.107Z,3.13
2022-08-16T20:56:54.850Z,3.38
2022-08-16T20:59:22.819Z,3.20
2022-08-16T21:01:50.991Z,3.42
2022-08-16T21:04:22.502Z,3.50
2022-08-16T21:06:53.426Z,3.60
2022-08-16T21:09:24.438Z,3.60
2022-08-16T21:11:56.407Z,3.60
2022-08-16T21:14:24.574Z,3.33
2022-08-16T21:16:52.822Z,3.75
2022-08-16T21:19:20.903Z,3.53
2022-08-16T21:21:50.047Z,3.00
2022-08-16T21:24:18.112Z,3.22
2022-08-16T21:26:54.011Z,3.22
2022-08-16T21:29:39.767Z,3.53
2022-08-16T21:32:14.388Z,3.20
2022-08-16T21:34:43.717Z,4.03
2022-08-16T21:37:12.188Z,3.43
2022-08-16T21:39:44.293Z,3.73
2022-08-16T21:42:15.139Z,3.78
2022-08-16T21:44:46.122Z,3.93
2022-08-16T21:47:13.964Z,3.63
2022-08-16T21:49:41.869Z,3.72
2022-08-16T21:52:10.494Z,3.43
2022-08-16T21:54:56.795Z,3.80
2022-08-16T21:57:25.211Z,3.50
2022-08-16T21:59:56.368Z,4.20
2022-08-16T22:02:27.907Z,3.67
2022-08-16T22:05:07.141Z,3.47
2022-08-16T22:07:34.946Z,3.60
2022-08-16T22:11:06.449Z,3.80
2022-08-16T22:12:51.732Z,3.47
2022-08-16T22:15:25.935Z,3.63
2022-08-16T22:17:55.119Z,3.80
2022-08-16T22:20:25.317Z,4.10
2022-08-16T22:23:08.792Z,3.97
2022-08-16T22:25:37.173Z,3.50
2022-08-16T22:28:07.340Z,3.60
2022-08-16T22:30:36.612Z,3.83
2022-08-16T22:33:09.753Z,3.93
2022-08-16T22:35:42.787Z,3.60
2022-08-16T22:38:54.411Z,3.87
2022-08-16T22:41:01.621Z,4.30
2022-08-16T22:43:32.385Z,4.47
2022-08-16T22:46:01.874Z,4.20
2022-08-16T22:48:29.712Z,4.07
2022-08-16T22:50:57.699Z,4.10
2022-08-16T22:53:27.005Z,4.37
2022-08-16T22:55:55.383Z,4.67
2022-08-16T22:58:36.513Z,4.40
2022-08-16T23:01:09.334Z,4.67
2022-08-16T23:03:38.781Z,4.50
2022-08-16T23:06:08.625Z,4.53
2022-08-16T23:08:40.923Z,4.47
2022-08-16T23:11:12.105Z,4.30
2022-08-16T23:13:53.066Z,4.27
2022-08-16T23:16:33.051Z,4.27
2022-08-16T23:19:02.069Z,3.83
2022-08-16T23:21:29.954Z,4.13
2022-08-16T23:23:58.622Z,4.33
2022-08-16T23:26:46.316Z,4.77
2022-08-16T23:29:25.633Z,4.13
2022-08-16T23:32:12.084Z,4.43
2022-08-16T23:34:40.279Z,4.80
2022-08-16T23:37:08.811Z,4.50
2022-08-16T23:39:36.988Z,4.67
2022-08-16T23:42:13.171Z,4.30
2022-08-16T23:44:58.648Z,4.13
2022-08-16T23:47:29.263Z,4.10
2022-08-16T23:50:03.526Z,4.40
2022-08-16T23:52:39.373Z,4.10
2022-08-16T23:55:25.048Z,4.20
2022-08-16T23:57:53.299Z,4.70
